DLH5MK EINN-EDDC
Flight info
| Callsign | DLH5MK |
|---|---|
| Flight time | N/A |
| Altitude | 39000 |
| Route | ABAGU3B ABAGU DCT BAKUR DCT HON P155 SIVDA P137 REDFA L620 TACHA DCT ABGUS Z92 MAG L986 BOLBO M748 OSKAN OSKAN4B |
| Aircraft | A333/H-SDE3GHIJ2J3J5M1RVWXY/LB2D1 |
Departure
| Time | 2026-05-07 20:23 |
|---|---|
| Airport | Shannon Airport (EINN) |
Arrival
| Time | N/A |
|---|---|
| Airport | Dresden Airport (EDDC) |
| Time | Latitude | Longitude | Altitude | Speed | Heading |
|---|---|---|---|---|---|
| 2026-05-07 20:02 | 52.69265 | -8.91795 | 24 ft | 0 kts | 94° |
| 2026-05-07 20:17 | 52.69265 | -8.91782 | 26 ft | 4 kts | 92° |
| 2026-05-07 20:17 | 52.69278 | -8.91715 | 28 ft | 7 kts | 62° |
| 2026-05-07 20:17 | 52.69280 | -8.91655 | 28 ft | 4 kts | 104° |
| 2026-05-07 20:17 | 52.69266 | -8.91622 | 27 ft | 7 kts | 126° |
| 2026-05-07 20:18 | 52.69258 | -8.91544 | 27 ft | 4 kts | 64° |
| 2026-05-07 20:18 | 52.69292 | -8.91510 | 25 ft | 9 kts | 19° |
| 2026-05-07 20:18 | 52.69390 | -8.91460 | 25 ft | 21 kts | 17° |
| 2026-05-07 20:18 | 52.69555 | -8.91370 | 22 ft | 27 kts | 20° |
| 2026-05-07 20:19 | 52.69705 | -8.91283 | 21 ft | 22 kts | 18° |
| 2026-05-07 20:19 | 52.69858 | -8.91199 | 18 ft | 24 kts | 18° |
| 2026-05-07 20:19 | 52.70021 | -8.91109 | 16 ft | 25 kts | 18° |
| 2026-05-07 20:19 | 52.70144 | -8.91041 | 15 ft | 18 kts | 15° |
| 2026-05-07 20:20 | 52.70264 | -8.90970 | 14 ft | 18 kts | 24° |
| 2026-05-07 20:20 | 52.70388 | -8.90902 | 13 ft | 20 kts | 18° |
| 2026-05-07 20:20 | 52.70472 | -8.90857 | 12 ft | 13 kts | 18° |
| 2026-05-07 20:20 | 52.70559 | -8.90810 | 12 ft | 14 kts | 17° |
| 2026-05-07 20:21 | 52.70692 | -8.90737 | 11 ft | 16 kts | 19° |
| 2026-05-07 20:21 | 52.70767 | -8.90695 | 10 ft | 17 kts | 19° |
| 2026-05-07 20:21 | 52.70874 | -8.90684 | 9 ft | 12 kts | 338° |
| 2026-05-07 20:21 | 52.70886 | -8.90694 | 9 ft | 1 kts | 332° |
| 2026-05-07 20:22 | 52.70930 | -8.90746 | 9 ft | 15 kts | 319° |
| 2026-05-07 20:22 | 52.70942 | -8.90901 | 9 ft | 13 kts | 243° |
| 2026-05-07 20:22 | 52.70887 | -8.91014 | 10 ft | 17 kts | 230° |
| 2026-05-07 20:22 | 52.70627 | -8.91571 | 12 ft | 108 kts | 232° |
| 2026-05-07 20:23 | 52.69989 | -8.92907 | 149 ft | 179 kts | 233° |
| 2026-05-07 20:23 | 52.69141 | -8.94726 | 677 ft | 224 kts | 233° |
| 2026-05-07 20:23 | 52.67866 | -8.96455 | 1596 ft | 244 kts | 202° |
| 2026-05-07 20:23 | 52.66229 | -8.96545 | 2992 ft | 233 kts | 168° |
| 2026-05-07 20:24 | 52.64827 | -8.95749 | 4117 ft | 200 kts | 162° |
| 2026-05-07 20:24 | 52.63553 | -8.94974 | 4773 ft | 193 kts | 165° |
| 2026-05-07 20:24 | 52.62268 | -8.94315 | 4990 ft | 194 kts | 167° |
| 2026-05-07 20:24 | 52.60987 | -8.93573 | 4996 ft | 198 kts | 157° |
| 2026-05-07 20:25 | 52.59888 | -8.92234 | 4978 ft | 203 kts | 134° |
| 2026-05-07 20:25 | 52.59221 | -8.90192 | 5242 ft | 209 kts | 109° |
| 2026-05-07 20:25 | 52.58945 | -8.87686 | 5581 ft | 240 kts | 99° |
| 2026-05-07 20:25 | 52.58710 | -8.84783 | 6171 ft | 266 kts | 101° |
| 2026-05-07 20:26 | 52.58421 | -8.81713 | 7125 ft | 275 kts | 101° |
| 2026-05-07 20:26 | 52.58113 | -8.78583 | 8206 ft | 280 kts | 101° |
| 2026-05-07 20:26 | 52.57795 | -8.75389 | 9319 ft | 285 kts | 101° |
| 2026-05-07 20:26 | 52.57473 | -8.72143 | 10341 ft | 293 kts | 101° |
| 2026-05-07 20:27 | 52.57134 | -8.68707 | 10841 ft | 317 kts | 101° |
| 2026-05-07 20:27 | 52.56771 | -8.65013 | 11470 ft | 334 kts | 101° |
| 2026-05-07 20:27 | 52.56400 | -8.61193 | 12313 ft | 342 kts | 101° |
| 2026-05-07 20:27 | 52.56023 | -8.57298 | 13230 ft | 349 kts | 101° |
| 2026-05-07 20:28 | 52.55638 | -8.53319 | 14094 ft | 355 kts | 101° |
| 2026-05-07 20:28 | 52.55245 | -8.49269 | 14895 ft | 360 kts | 102° |
| 2026-05-07 20:28 | 52.54850 | -8.45224 | 15754 ft | 365 kts | 102° |
| 2026-05-07 20:28 | 52.54445 | -8.41093 | 16581 ft | 369 kts | 102° |
| 2026-05-07 20:29 | 52.54032 | -8.36910 | 17406 ft | 373 kts | 102° |
| 2026-05-07 20:29 | 52.53612 | -8.32674 | 18207 ft | 377 kts | 102° |
| 2026-05-07 20:29 | 52.53188 | -8.28410 | 18892 ft | 381 kts | 102° |
| 2026-05-07 20:29 | 52.52756 | -8.24090 | 19566 ft | 385 kts | 102° |
| 2026-05-07 20:30 | 52.52318 | -8.19709 | 20255 ft | 389 kts | 102° |
| 2026-05-07 20:30 | 52.51877 | -8.15322 | 20914 ft | 392 kts | 102° |
| 2026-05-07 20:30 | 52.51428 | -8.10872 | 21592 ft | 396 kts | 102° |
| 2026-05-07 20:30 | 52.50980 | -8.06456 | 22241 ft | 399 kts | 103° |
| 2026-05-07 20:31 | 52.50514 | -8.01883 | 22872 ft | 403 kts | 103° |
| 2026-05-07 20:31 | 52.50048 | -7.97328 | 23509 ft | 407 kts | 103° |
| 2026-05-07 20:31 | 52.49576 | -7.92732 | 24032 ft | 410 kts | 103° |
| 2026-05-07 20:31 | 52.49107 | -7.88176 | 24585 ft | 412 kts | 102° |
| 2026-05-07 20:32 | 52.48625 | -7.83519 | 25105 ft | 415 kts | 102° |
| 2026-05-07 20:32 | 52.48138 | -7.78839 | 25601 ft | 418 kts | 102° |
| 2026-05-07 20:32 | 52.47645 | -7.74115 | 26099 ft | 421 kts | 102° |
| 2026-05-07 20:32 | 52.47146 | -7.69356 | 26558 ft | 425 kts | 102° |
| 2026-05-07 20:33 | 52.46638 | -7.64531 | 26797 ft | 435 kts | 102° |
| 2026-05-07 20:33 | 52.46115 | -7.59588 | 26975 ft | 445 kts | 102° |
| 2026-05-07 20:33 | 52.45578 | -7.54537 | 27246 ft | 452 kts | 102° |
| 2026-05-07 20:33 | 52.45035 | -7.49442 | 27630 ft | 456 kts | 102° |
| 2026-05-07 20:34 | 52.44488 | -7.44314 | 28084 ft | 458 kts | 102° |
| 2026-05-07 20:34 | 52.43936 | -7.39171 | 28567 ft | 459 kts | 102° |
| 2026-05-07 20:34 | 52.43378 | -7.33995 | 28984 ft | 462 kts | 102° |
| 2026-05-07 20:34 | 52.42814 | -7.28789 | 29391 ft | 465 kts | 102° |
| 2026-05-07 20:35 | 52.42252 | -7.23629 | 29784 ft | 468 kts | 102° |
| 2026-05-07 20:35 | 52.41670 | -7.18301 | 30168 ft | 470 kts | 102° |
| 2026-05-07 20:35 | 52.41096 | -7.13077 | 30523 ft | 472 kts | 102° |
| 2026-05-07 20:35 | 52.40513 | -7.07793 | 31008 ft | 471 kts | 102° |
| 2026-05-07 20:36 | 52.39929 | -7.02509 | 31469 ft | 470 kts | 102° |
| 2026-05-07 20:36 | 52.39343 | -6.97246 | 31919 ft | 470 kts | 102° |
| 2026-05-07 20:36 | 52.38757 | -6.91986 | 32490 ft | 466 kts | 102° |
| 2026-05-07 20:36 | 52.38181 | -6.86839 | 33364 ft | 455 kts | 102° |
| 2026-05-07 20:37 | 52.37609 | -6.81756 | 34036 ft | 451 kts | 102° |
| 2026-05-07 20:37 | 52.37039 | -6.76721 | 34431 ft | 450 kts | 102° |
| 2026-05-07 20:37 | 52.36465 | -6.71685 | 34769 ft | 450 kts | 102° |
| 2026-05-07 20:37 | 52.35889 | -6.66650 | 35095 ft | 451 kts | 102° |
| 2026-05-07 20:38 | 52.35311 | -6.61612 | 35423 ft | 451 kts | 102° |
| 2026-05-07 20:38 | 52.34729 | -6.56559 | 35751 ft | 452 kts | 102° |
| 2026-05-07 20:38 | 52.34147 | -6.51521 | 36063 ft | 452 kts | 102° |
| 2026-05-07 20:38 | 52.33559 | -6.46452 | 36391 ft | 453 kts | 102° |
| 2026-05-07 20:39 | 52.32971 | -6.41392 | 36699 ft | 453 kts | 102° |
| 2026-05-07 20:39 | 52.32382 | -6.36347 | 37047 ft | 452 kts | 102° |
| 2026-05-07 20:39 | 52.31798 | -6.31365 | 37337 ft | 453 kts | 102° |
| 2026-05-07 20:39 | 52.31201 | -6.26298 | 37627 ft | 454 kts | 102° |
| 2026-05-07 20:40 | 52.30602 | -6.21232 | 37923 ft | 454 kts | 102° |
| 2026-05-07 20:40 | 52.29998 | -6.16140 | 38217 ft | 455 kts | 102° |
| 2026-05-07 20:40 | 52.29394 | -6.11069 | 38506 ft | 456 kts | 102° |
| 2026-05-07 20:40 | 52.28785 | -6.05983 | 38763 ft | 456 kts | 102° |
| 2026-05-07 20:41 | 52.28174 | -6.00899 | 38953 ft | 457 kts | 102° |
| 2026-05-07 20:41 | 52.26952 | -5.90782 | 39009 ft | 450 kts | 102° |
| 2026-05-07 20:42 | 52.25735 | -5.80782 | 39009 ft | 448 kts | 103° |
| 2026-05-07 20:42 | 52.24563 | -5.70779 | 39012 ft | 449 kts | 98° |
| 2026-05-07 20:43 | 52.24497 | -5.60585 | 39014 ft | 450 kts | 88° |
| 2026-05-07 20:43 | 52.24898 | -5.50360 | 39014 ft | 451 kts | 86° |
| 2026-05-07 20:44 | 52.25376 | -5.40226 | 39014 ft | 451 kts | 86° |
| 2026-05-07 20:44 | 52.25840 | -5.30015 | 39018 ft | 451 kts | 86° |
| 2026-05-07 20:45 | 52.26278 | -5.19784 | 39017 ft | 451 kts | 87° |
| 2026-05-07 20:45 | 52.26698 | -5.09555 | 39018 ft | 451 kts | 87° |
| 2026-05-07 20:46 | 52.27107 | -4.99344 | 39020 ft | 451 kts | 87° |
| 2026-05-07 20:46 | 52.27509 | -4.89128 | 39022 ft | 451 kts | 87° |
| 2026-05-07 20:47 | 52.27903 | -4.78888 | 39020 ft | 452 kts | 88° |
| 2026-05-07 20:47 | 52.28289 | -4.68641 | 39023 ft | 452 kts | 88° |
| 2026-05-07 20:48 | 52.28666 | -4.58387 | 39023 ft | 452 kts | 88° |
| 2026-05-07 20:48 | 52.29034 | -4.48226 | 39026 ft | 452 kts | 88° |
| 2026-05-07 20:49 | 52.29403 | -4.37970 | 39025 ft | 452 kts | 88° |
| 2026-05-07 20:49 | 52.29758 | -4.27715 | 39026 ft | 452 kts | 88° |
| 2026-05-07 20:50 | 52.30101 | -4.17449 | 39026 ft | 452 kts | 88° |
| 2026-05-07 20:50 | 52.30434 | -4.07202 | 39026 ft | 452 kts | 88° |
| 2026-05-07 20:51 | 52.30757 | -3.96942 | 39027 ft | 452 kts | 88° |
| 2026-05-07 20:51 | 52.31073 | -3.86666 | 39031 ft | 452 kts | 88° |
| 2026-05-07 20:52 | 52.31379 | -3.76398 | 39031 ft | 452 kts | 88° |
| 2026-05-07 20:52 | 52.31676 | -3.66141 | 39034 ft | 452 kts | 89° |
| 2026-05-07 20:53 | 52.31962 | -3.55942 | 39034 ft | 452 kts | 89° |
| 2026-05-07 20:53 | 52.32239 | -3.45668 | 39029 ft | 452 kts | 89° |
| 2026-05-07 20:54 | 52.32504 | -3.35412 | 39034 ft | 451 kts | 89° |
| 2026-05-07 20:54 | 52.32762 | -3.25165 | 39034 ft | 450 kts | 89° |
| 2026-05-07 20:55 | 52.33014 | -3.14936 | 39034 ft | 450 kts | 89° |
| 2026-05-07 20:55 | 52.33256 | -3.04740 | 39034 ft | 450 kts | 89° |
| 2026-05-07 20:56 | 52.33491 | -2.94499 | 39033 ft | 450 kts | 89° |
| 2026-05-07 20:56 | 52.33717 | -2.84249 | 39037 ft | 451 kts | 89° |
| 2026-05-07 20:57 | 52.33933 | -2.74001 | 39036 ft | 451 kts | 89° |
| 2026-05-07 20:57 | 52.34140 | -2.63818 | 39037 ft | 451 kts | 90° |
| 2026-05-07 20:58 | 52.34339 | -2.53565 | 39039 ft | 451 kts | 90° |
| 2026-05-07 20:58 | 52.34529 | -2.43315 | 39037 ft | 450 kts | 90° |
| 2026-05-07 20:59 | 52.34711 | -2.33075 | 39037 ft | 450 kts | 90° |
| 2026-05-07 20:59 | 52.34886 | -2.22827 | 39041 ft | 450 kts | 90° |
| 2026-05-07 21:00 | 52.35055 | -2.12583 | 39041 ft | 450 kts | 90° |
| 2026-05-07 21:00 | 52.35212 | -2.02202 | 39039 ft | 463 kts | 90° |
| 2026-05-07 21:01 | 52.35362 | -1.91513 | 39033 ft | 477 kts | 90° |
| 2026-05-07 21:01 | 52.35508 | -1.80563 | 39035 ft | 483 kts | 90° |
| 2026-05-07 21:02 | 52.35645 | -1.69649 | 39033 ft | 483 kts | 90° |
| 2026-05-07 21:02 | 52.35747 | -1.58658 | 39035 ft | 483 kts | 90° |
| 2026-05-07 21:03 | 52.35805 | -1.47684 | 39024 ft | 483 kts | 91° |
| 2026-05-07 21:03 | 52.35851 | -1.36680 | 39036 ft | 485 kts | 91° |
| 2026-05-07 21:04 | 52.35890 | -1.25576 | 39034 ft | 489 kts | 91° |
| 2026-05-07 21:04 | 52.35921 | -1.14416 | 39040 ft | 490 kts | 91° |
| 2026-05-07 21:05 | 52.35942 | -1.03282 | 39041 ft | 489 kts | 91° |
| 2026-05-07 21:05 | 52.35952 | -0.92151 | 39046 ft | 490 kts | 91° |
| 2026-05-07 21:06 | 52.35952 | -0.82891 | 39050 ft | 490 kts | 91° |
| 2026-05-07 21:06 | 52.35943 | -0.71734 | 39060 ft | 490 kts | 91° |
| 2026-05-07 21:07 | 52.35923 | -0.58780 | 39064 ft | 490 kts | 91° |
| 2026-05-07 21:07 | 52.35903 | -0.49503 | 39067 ft | 490 kts | 91° |
| 2026-05-07 21:08 | 52.35868 | -0.38279 | 39071 ft | 490 kts | 91° |
| 2026-05-07 21:08 | 52.35822 | -0.27207 | 39071 ft | 490 kts | 91° |
| 2026-05-07 21:09 | 52.35764 | -0.16055 | 39066 ft | 490 kts | 91° |
| 2026-05-07 21:09 | 52.35694 | -0.04895 | 39065 ft | 490 kts | 91° |
| 2026-05-07 21:10 | 52.35304 | 0.06211 | 39071 ft | 488 kts | 98° |
| 2026-05-07 21:10 | 52.34417 | 0.17210 | 39077 ft | 487 kts | 99° |
| 2026-05-07 21:11 | 52.33431 | 0.28172 | 39096 ft | 487 kts | 99° |
| 2026-05-07 21:11 | 52.31926 | 0.44594 | 39101 ft | 487 kts | 99° |
| 2026-05-07 21:12 | 52.30922 | 0.55529 | 39103 ft | 487 kts | 99° |
| 2026-05-07 21:12 | 52.29908 | 0.66489 | 39098 ft | 488 kts | 100° |
| 2026-05-07 21:13 | 52.28892 | 0.77370 | 39108 ft | 488 kts | 100° |
| 2026-05-07 21:13 | 52.27859 | 0.88313 | 39096 ft | 488 kts | 100° |
| 2026-05-07 21:14 | 52.26816 | 0.99255 | 39087 ft | 488 kts | 100° |
| 2026-05-07 21:14 | 52.25759 | 1.10220 | 39103 ft | 488 kts | 100° |
| 2026-05-07 21:15 | 52.24695 | 1.21151 | 39102 ft | 488 kts | 100° |
| 2026-05-07 21:15 | 52.23618 | 1.32106 | 39102 ft | 488 kts | 100° |
| 2026-05-07 21:16 | 52.22531 | 1.43058 | 39109 ft | 488 kts | 100° |
| 2026-05-07 21:16 | 52.21442 | 1.53922 | 39109 ft | 488 kts | 101° |
| 2026-05-07 21:17 | 52.20329 | 1.64916 | 39105 ft | 488 kts | 101° |
| 2026-05-07 21:17 | 52.19214 | 1.75817 | 39105 ft | 494 kts | 101° |
| 2026-05-07 21:18 | 52.18070 | 1.86903 | 39108 ft | 497 kts | 101° |
| 2026-05-07 21:18 | 52.16915 | 1.98000 | 39099 ft | 496 kts | 101° |